sensor_id;sensor_type;location;lat;lon;timestamp;P1;durP1;ratioP1;P2;durP2;ratioP2
23175;SDS011;19910;42.652;23.332;2023-05-20T00:00:12;15.27;;;8.38;;
23175;SDS011;19910;42.652;23.332;2023-05-20T00:02:39;12.10;;;7.13;;
23175;SDS011;19910;42.652;23.332;2023-05-20T00:05:06;17.35;;;6.57;;
23175;SDS011;19910;42.652;23.332;2023-05-20T00:07:33;9.90;;;6.57;;
23175;SDS011;19910;42.652;23.332;2023-05-20T00:10:00;12.70;;;6.43;;
23175;SDS011;19910;42.652;23.332;2023-05-20T00:12:27;9.13;;;5.78;;
23175;SDS011;19910;42.652;23.332;2023-05-20T00:14:53;11.00;;;6.45;;
23175;SDS011;19910;42.652;23.332;2023-05-20T00:17:22;12.00;;;7.15;;
23175;SDS011;19910;42.652;23.332;2023-05-20T00:19:50;10.77;;;6.50;;
23175;SDS011;19910;42.652;23.332;2023-05-20T00:22:17;11.57;;;6.03;;
23175;SDS011;19910;42.652;23.332;2023-05-20T00:24:43;11.48;;;6.82;;
23175;SDS011;19910;42.652;23.332;2023-05-20T00:27:10;10.38;;;6.03;;
23175;SDS011;19910;42.652;23.332;2023-05-20T00:29:37;13.80;;;6.45;;
23175;SDS011;19910;42.652;23.332;2023-05-20T00:32:04;10.07;;;6.10;;
23175;SDS011;19910;42.652;23.332;2023-05-20T00:34:33;14.52;;;6.13;;
23175;SDS011;19910;42.652;23.332;2023-05-20T00:36:59;10.38;;;5.70;;
23175;SDS011;19910;42.652;23.332;2023-05-20T00:39:26;12.93;;;5.30;;
23175;SDS011;19910;42.652;23.332;2023-05-20T00:41:54;11.77;;;5.63;;
23175;SDS011;19910;42.652;23.332;2023-05-20T00:44:24;10.52;;;5.72;;
23175;SDS011;19910;42.652;23.332;2023-05-20T00:46:51;11.32;;;5.93;;
23175;SDS011;19910;42.652;23.332;2023-05-20T00:49:18;8.88;;;5.88;;
23175;SDS011;19910;42.652;23.332;2023-05-20T00:51:47;11.20;;;5.38;;
23175;SDS011;19910;42.652;23.332;2023-05-20T00:54:14;9.43;;;5.47;;
23175;SDS011;19910;42.652;23.332;2023-05-20T00:56:41;15.23;;;6.45;;
23175;SDS011;19910;42.652;23.332;2023-05-20T00:59:08;11.27;;;5.75;;
23175;SDS011;19910;42.652;23.332;2023-05-20T01:01:35;12.27;;;5.68;;
23175;SDS011;19910;42.652;23.332;2023-05-20T01:04:02;8.32;;;5.60;;
23175;SDS011;19910;42.652;23.332;2023-05-20T01:06:29;12.45;;;5.70;;
23175;SDS011;19910;42.652;23.332;2023-05-20T01:08:59;12.50;;;5.85;;
23175;SDS011;19910;42.652;23.332;2023-05-20T01:11:27;12.38;;;5.72;;
23175;SDS011;19910;42.652;23.332;2023-05-20T01:13:59;10.48;;;6.07;;
23175;SDS011;19910;42.652;23.332;2023-05-20T01:16:28;10.73;;;5.75;;
23175;SDS011;19910;42.652;23.332;2023-05-20T01:18:58;9.85;;;5.85;;
23175;SDS011;19910;42.652;23.332;2023-05-20T01:21:28;14.38;;;5.85;;
23175;SDS011;19910;42.652;23.332;2023-05-20T01:23:57;14.05;;;5.63;;
23175;SDS011;19910;42.652;23.332;2023-05-20T01:26:25;12.75;;;5.97;;
23175;SDS011;19910;42.652;23.332;2023-05-20T01:28:52;9.27;;;5.63;;
23175;SDS011;19910;42.652;23.332;2023-05-20T01:31:22;10.82;;;5.53;;
23175;SDS011;19910;42.652;23.332;2023-05-20T01:33:53;8.63;;;5.00;;
23175;SDS011;19910;42.652;23.332;2023-05-20T01:36:22;14.43;;;5.95;;
23175;SDS011;19910;42.652;23.332;2023-05-20T01:38:51;9.13;;;5.28;;
23175;SDS011;19910;42.652;23.332;2023-05-20T01:41:20;11.05;;;6.20;;
23175;SDS011;19910;42.652;23.332;2023-05-20T01:43:50;9.50;;;5.90;;
23175;SDS011;19910;42.652;23.332;2023-05-20T01:46:17;13.15;;;6.03;;
23175;SDS011;19910;42.652;23.332;2023-05-20T01:48:44;7.60;;;4.55;;
23175;SDS011;19910;42.652;23.332;2023-05-20T01:51:11;10.95;;;5.20;;
23175;SDS011;19910;42.652;23.332;2023-05-20T01:53:37;12.48;;;5.38;;
23175;SDS011;19910;42.652;23.332;2023-05-20T01:56:04;11.32;;;5.82;;
23175;SDS011;19910;42.652;23.332;2023-05-20T01:58:32;14.43;;;6.47;;
23175;SDS011;19910;42.652;23.332;2023-05-20T02:00:59;16.40;;;6.60;;
23175;SDS011;19910;42.652;23.332;2023-05-20T02:03:27;11.75;;;6.53;;
23175;SDS011;19910;42.652;23.332;2023-05-20T02:05:54;14.45;;;7.70;;
23175;SDS011;19910;42.652;23.332;2023-05-20T02:08:21;10.30;;;6.68;;
23175;SDS011;19910;42.652;23.332;2023-05-20T02:10:47;11.70;;;5.65;;
23175;SDS011;19910;42.652;23.332;2023-05-20T02:13:14;8.80;;;5.70;;
23175;SDS011;19910;42.652;23.332;2023-05-20T02:15:43;12.32;;;7.07;;
23175;SDS011;19910;42.652;23.332;2023-05-20T02:18:10;11.35;;;6.40;;
23175;SDS011;19910;42.652;23.332;2023-05-20T02:20:38;10.40;;;5.53;;
23175;SDS011;19910;42.652;23.332;2023-05-20T02:23:05;19.95;;;6.40;;
23175;SDS011;19910;42.652;23.332;2023-05-20T02:25:32;9.27;;;5.32;;
23175;SDS011;19910;42.652;23.332;2023-05-20T02:27:59;11.07;;;5.85;;
23175;SDS011;19910;42.652;23.332;2023-05-20T02:30:29;8.32;;;5.15;;
23175;SDS011;19910;42.652;23.332;2023-05-20T02:32:57;12.32;;;5.00;;
23175;SDS011;19910;42.652;23.332;2023-05-20T02:35:24;10.75;;;5.90;;
23175;SDS011;19910;42.652;23.332;2023-05-20T02:37:51;8.93;;;5.20;;
23175;SDS011;19910;42.652;23.332;2023-05-20T02:40:18;8.80;;;5.72;;
23175;SDS011;19910;42.652;23.332;2023-05-20T02:42:44;8.02;;;5.10;;
23175;SDS011;19910;42.652;23.332;2023-05-20T02:45:11;9.20;;;4.95;;
23175;SDS011;19910;42.652;23.332;2023-05-20T02:47:38;11.07;;;5.50;;
23175;SDS011;19910;42.652;23.332;2023-05-20T02:50:07;7.85;;;4.78;;
23175;SDS011;19910;42.652;23.332;2023-05-20T02:52:34;12.85;;;5.45;;
23175;SDS011;19910;42.652;23.332;2023-05-20T02:55:01;9.57;;;5.15;;
23175;SDS011;19910;42.652;23.332;2023-05-20T02:57:28;7.97;;;4.90;;
23175;SDS011;19910;42.652;23.332;2023-05-20T02:59:55;11.10;;;5.53;;
23175;SDS011;19910;42.652;23.332;2023-05-20T03:02:22;8.43;;;5.00;;
23175;SDS011;19910;42.652;23.332;2023-05-20T03:04:49;9.70;;;5.45;;
23175;SDS011;19910;42.652;23.332;2023-05-20T03:07:19;9.50;;;5.82;;
23175;SDS011;19910;42.652;23.332;2023-05-20T03:09:46;8.70;;;5.85;;
23175;SDS011;19910;42.652;23.332;2023-05-20T03:12:13;9.60;;;5.60;;
23175;SDS011;19910;42.652;23.332;2023-05-20T03:14:40;7.95;;;5.57;;
23175;SDS011;19910;42.652;23.332;2023-05-20T03:17:07;8.98;;;5.28;;
23175;SDS011;19910;42.652;23.332;2023-05-20T03:19:34;9.35;;;5.15;;
23175;SDS011;19910;42.652;23.332;2023-05-20T03:22:01;9.48;;;6.05;;
23175;SDS011;19910;42.652;23.332;2023-05-20T03:24:29;12.65;;;5.38;;
23175;SDS011;19910;42.652;23.332;2023-05-20T03:26:56;9.07;;;5.50;;
23175;SDS011;19910;42.652;23.332;2023-05-20T03:29:23;11.82;;;6.57;;
23175;SDS011;19910;42.652;23.332;2023-05-20T03:31:49;15.13;;;7.25;;
23175;SDS011;19910;42.652;23.332;2023-05-20T03:34:16;10.05;;;6.05;;
23175;SDS011;19910;42.652;23.332;2023-05-20T03:36:43;10.38;;;6.20;;
23175;SDS011;19910;42.652;23.332;2023-05-20T03:39:10;8.40;;;5.78;;
23175;SDS011;19910;42.652;23.332;2023-05-20T03:41:38;8.32;;;4.95;;
23175;SDS011;19910;42.652;23.332;2023-05-20T03:44:05;10.68;;;5.60;;
23175;SDS011;19910;42.652;23.332;2023-05-20T03:46:31;7.40;;;5.20;;
23175;SDS011;19910;42.652;23.332;2023-05-20T03:48:58;10.02;;;6.40;;
23175;SDS011;19910;42.652;23.332;2023-05-20T03:51:26;17.30;;;6.50;;
23175;SDS011;19910;42.652;23.332;2023-05-20T03:53:52;9.57;;;6.68;;
23175;SDS011;19910;42.652;23.332;2023-05-20T03:56:19;9.65;;;6.72;;
23175;SDS011;19910;42.652;23.332;2023-05-20T03:58:47;11.38;;;7.93;;
23175;SDS011;19910;42.652;23.332;2023-05-20T04:01:14;9.13;;;6.18;;
23175;SDS011;19910;42.652;23.332;2023-05-20T04:03:41;9.57;;;7.30;;
23175;SDS011;19910;42.652;23.332;2023-05-20T04:06:08;10.15;;;6.82;;
23175;SDS011;19910;42.652;23.332;2023-05-20T04:08:35;11.18;;;6.07;;
23175;SDS011;19910;42.652;23.332;2023-05-20T04:11:02;10.82;;;5.60;;
23175;SDS011;19910;42.652;23.332;2023-05-20T04:13:28;12.30;;;5.88;;
23175;SDS011;19910;42.652;23.332;2023-05-20T04:15:57;14.82;;;7.72;;
23175;SDS011;19910;42.652;23.332;2023-05-20T04:18:24;11.30;;;7.75;;
23175;SDS011;19910;42.652;23.332;2023-05-20T04:20:54;13.65;;;7.00;;
23175;SDS011;19910;42.652;23.332;2023-05-20T04:23:21;11.77;;;7.65;;
23175;SDS011;19910;42.652;23.332;2023-05-20T04:25:48;15.25;;;8.85;;
23175;SDS011;19910;42.652;23.332;2023-05-20T04:28:14;13.80;;;8.63;;
23175;SDS011;19910;42.652;23.332;2023-05-20T04:30:41;14.35;;;7.15;;
23175;SDS011;19910;42.652;23.332;2023-05-20T04:33:10;12.57;;;8.55;;
23175;SDS011;19910;42.652;23.332;2023-05-20T04:35:38;11.57;;;7.93;;
23175;SDS011;19910;42.652;23.332;2023-05-20T04:38:06;14.45;;;8.02;;
23175;SDS011;19910;42.652;23.332;2023-05-20T04:40:33;11.00;;;7.93;;
23175;SDS011;19910;42.652;23.332;2023-05-20T04:43:00;11.07;;;7.75;;
23175;SDS011;19910;42.652;23.332;2023-05-20T04:45:28;11.13;;;7.63;;
23175;SDS011;19910;42.652;23.332;2023-05-20T04:47:55;12.02;;;8.32;;
23175;SDS011;19910;42.652;23.332;2023-05-20T04:50:23;11.43;;;8.95;;
23175;SDS011;19910;42.652;23.332;2023-05-20T04:52:50;12.52;;;9.10;;
23175;SDS011;19910;42.652;23.332;2023-05-20T04:55:16;12.93;;;8.60;;
23175;SDS011;19910;42.652;23.332;2023-05-20T04:57:45;16.85;;;8.93;;
23175;SDS011;19910;42.652;23.332;2023-05-20T05:00:12;11.32;;;9.02;;
23175;SDS011;19910;42.652;23.332;2023-05-20T05:02:40;11.25;;;8.75;;
23175;SDS011;19910;42.652;23.332;2023-05-20T05:05:07;16.20;;;8.95;;
23175;SDS011;19910;42.652;23.332;2023-05-20T05:07:36;11.57;;;8.38;;
23175;SDS011;19910;42.652;23.332;2023-05-20T05:10:02;13.02;;;8.45;;
23175;SDS011;19910;42.652;23.332;2023-05-20T05:12:29;12.23;;;8.10;;
23175;SDS011;19910;42.652;23.332;2023-05-20T05:14:56;10.80;;;8.45;;
23175;SDS011;19910;42.652;23.332;2023-05-20T05:17:23;12.82;;;8.40;;
23175;SDS011;19910;42.652;23.332;2023-05-20T05:19:50;12.10;;;8.80;;
23175;SDS011;19910;42.652;23.332;2023-05-20T05:22:17;12.57;;;8.60;;
23175;SDS011;19910;42.652;23.332;2023-05-20T05:24:45;14.85;;;8.90;;
23175;SDS011;19910;42.652;23.332;2023-05-20T05:27:11;14.15;;;8.48;;
23175;SDS011;19910;42.652;23.332;2023-05-20T05:29:38;14.90;;;9.15;;
23175;SDS011;19910;42.652;23.332;2023-05-20T05:32:05;20.58;;;8.95;;
23175;SDS011;19910;42.652;23.332;2023-05-20T05:34:32;13.07;;;8.35;;
23175;SDS011;19910;42.652;23.332;2023-05-20T05:36:59;12.07;;;8.35;;
23175;SDS011;19910;42.652;23.332;2023-05-20T05:39:26;13.45;;;9.27;;
23175;SDS011;19910;42.652;23.332;2023-05-20T05:41:54;11.90;;;8.70;;
23175;SDS011;19910;42.652;23.332;2023-05-20T05:44:21;10.25;;;7.75;;
23175;SDS011;19910;42.652;23.332;2023-05-20T05:46:48;11.07;;;6.88;;
23175;SDS011;19910;42.652;23.332;2023-05-20T05:49:14;9.50;;;7.38;;
23175;SDS011;19910;42.652;23.332;2023-05-20T05:51:41;13.68;;;7.60;;
23175;SDS011;19910;42.652;23.332;2023-05-20T05:54:08;13.25;;;7.78;;
23175;SDS011;19910;42.652;23.332;2023-05-20T05:56:34;14.27;;;8.38;;
23175;SDS011;19910;42.652;23.332;2023-05-20T05:59:03;9.13;;;7.65;;
23175;SDS011;19910;42.652;23.332;2023-05-20T06:01:30;15.73;;;8.95;;
23175;SDS011;19910;42.652;23.332;2023-05-20T06:03:56;12.35;;;8.77;;
23175;SDS011;19910;42.652;23.332;2023-05-20T06:06:23;15.43;;;8.75;;
23175;SDS011;19910;42.652;23.332;2023-05-20T06:08:50;12.85;;;7.95;;
23175;SDS011;19910;42.652;23.332;2023-05-20T06:11:17;14.30;;;8.35;;
23175;SDS011;19910;42.652;23.332;2023-05-20T06:13:44;9.68;;;7.78;;
23175;SDS011;19910;42.652;23.332;2023-05-20T06:16:13;11.55;;;7.80;;
23175;SDS011;19910;42.652;23.332;2023-05-20T06:18:39;9.30;;;7.88;;
23175;SDS011;19910;42.652;23.332;2023-05-20T06:21:06;9.73;;;6.90;;
23175;SDS011;19910;42.652;23.332;2023-05-20T06:23:33;10.32;;;6.85;;
23175;SDS011;19910;42.652;23.332;2023-05-20T06:26:00;10.70;;;8.10;;
23175;SDS011;19910;42.652;23.332;2023-05-20T06:28:28;11.30;;;7.82;;
23175;SDS011;19910;42.652;23.332;2023-05-20T06:30:55;11.80;;;6.88;;
23175;SDS011;19910;42.652;23.332;2023-05-20T06:39:20;10.45;;;6.07;;
23175;SDS011;19910;42.652;23.332;2023-05-20T06:41:50;6.05;;;4.78;;
23175;SDS011;19910;42.652;23.332;2023-05-20T06:44:17;12.55;;;5.57;;
23175;SDS011;19910;42.652;23.332;2023-05-20T06:46:44;9.27;;;5.28;;
23175;SDS011;19910;42.652;23.332;2023-05-20T06:49:11;7.32;;;5.13;;
23175;SDS011;19910;42.652;23.332;2023-05-20T06:51:38;11.05;;;4.70;;
23175;SDS011;19910;42.652;23.332;2023-05-20T06:54:04;8.07;;;4.72;;
23175;SDS011;19910;42.652;23.332;2023-05-20T06:56:33;5.75;;;4.88;;
23175;SDS011;19910;42.652;23.332;2023-05-20T06:58:59;6.28;;;5.28;;
23175;SDS011;19910;42.652;23.332;2023-05-20T07:01:26;6.88;;;5.18;;
23175;SDS011;19910;42.652;23.332;2023-05-20T07:03:53;7.75;;;5.15;;
23175;SDS011;19910;42.652;23.332;2023-05-20T07:06:20;8.32;;;5.40;;
23175;SDS011;19910;42.652;23.332;2023-05-20T07:08:46;6.68;;;5.38;;
23175;SDS011;19910;42.652;23.332;2023-05-20T07:11:13;7.78;;;5.03;;
23175;SDS011;19910;42.652;23.332;2023-05-20T07:13:42;10.35;;;5.50;;
23175;SDS011;19910;42.652;23.332;2023-05-20T07:16:08;8.20;;;5.22;;
23175;SDS011;19910;42.652;23.332;2023-05-20T07:18:35;8.75;;;5.32;;
23175;SDS011;19910;42.652;23.332;2023-05-20T07:21:02;9.60;;;5.43;;
23175;SDS011;19910;42.652;23.332;2023-05-20T07:23:29;7.13;;;5.45;;
23175;SDS011;19910;42.652;23.332;2023-05-20T07:25:56;8.05;;;4.95;;
23175;SDS011;19910;42.652;23.332;2023-05-20T07:28:22;7.15;;;5.13;;
23175;SDS011;19910;42.652;23.332;2023-05-20T07:30:51;9.05;;;5.20;;
23175;SDS011;19910;42.652;23.332;2023-05-20T07:33:17;11.23;;;5.35;;
23175;SDS011;19910;42.652;23.332;2023-05-20T07:35:44;9.13;;;5.35;;
23175;SDS011;19910;42.652;23.332;2023-05-20T07:38:11;6.10;;;5.22;;
23175;SDS011;19910;42.652;23.332;2023-05-20T07:40:38;7.57;;;5.40;;
23175;SDS011;19910;42.652;23.332;2023-05-20T07:43:06;8.30;;;4.97;;
23175;SDS011;19910;42.652;23.332;2023-05-20T07:45:33;9.25;;;5.53;;
23175;SDS011;19910;42.652;23.332;2023-05-20T07:48:02;7.72;;;4.93;;
23175;SDS011;19910;42.652;23.332;2023-05-20T07:50:29;7.35;;;5.38;;
23175;SDS011;19910;42.652;23.332;2023-05-20T07:52:56;10.00;;;5.45;;
23175;SDS011;19910;42.652;23.332;2023-05-20T07:55:22;6.60;;;5.70;;
23175;SDS011;19910;42.652;23.332;2023-05-20T07:57:49;7.78;;;5.75;;
23175;SDS011;19910;42.652;23.332;2023-05-20T08:00:16;8.80;;;5.47;;
23175;SDS011;19910;42.652;23.332;2023-05-20T08:02:43;10.75;;;5.97;;
23175;SDS011;19910;42.652;23.332;2023-05-20T08:05:11;9.20;;;5.50;;
23175;SDS011;19910;42.652;23.332;2023-05-20T08:07:38;11.63;;;5.68;;
23175;SDS011;19910;42.652;23.332;2023-05-20T08:10:06;7.35;;;5.47;;
23175;SDS011;19910;42.652;23.332;2023-05-20T08:12:33;6.88;;;5.50;;
23175;SDS011;19910;42.652;23.332;2023-05-20T08:15:00;7.13;;;5.70;;
23175;SDS011;19910;42.652;23.332;2023-05-20T08:19:15;8.40;;;5.93;;
23175;SDS011;19910;42.652;23.332;2023-05-20T08:21:41;8.38;;;5.90;;
23175;SDS011;19910;42.652;23.332;2023-05-20T08:24:08;9.02;;;5.95;;
23175;SDS011;19910;42.652;23.332;2023-05-20T08:26:35;8.93;;;5.72;;
23175;SDS011;19910;42.652;23.332;2023-05-20T08:29:01;8.07;;;6.00;;
23175;SDS011;19910;42.652;23.332;2023-05-20T08:31:28;8.05;;;6.35;;
23175;SDS011;19910;42.652;23.332;2023-05-20T08:33:55;9.27;;;6.15;;
23175;SDS011;19910;42.652;23.332;2023-05-20T08:36:23;9.10;;;5.78;;
23175;SDS011;19910;42.652;23.332;2023-05-20T08:38:50;10.43;;;6.72;;
23175;SDS011;19910;42.652;23.332;2023-05-20T08:41:17;7.65;;;5.88;;
23175;SDS011;19910;42.652;23.332;2023-05-20T08:43:46;8.77;;;6.07;;
23175;SDS011;19910;42.652;23.332;2023-05-20T08:46:14;7.88;;;5.85;;
23175;SDS011;19910;42.652;23.332;2023-05-20T08:48:42;7.47;;;6.40;;
23175;SDS011;19910;42.652;23.332;2023-05-20T08:51:09;10.15;;;5.88;;
23175;SDS011;19910;42.652;23.332;2023-05-20T08:53:38;8.70;;;6.28;;
23175;SDS011;19910;42.652;23.332;2023-05-20T08:56:05;6.97;;;5.28;;
23175;SDS011;19910;42.652;23.332;2023-05-20T08:58:33;9.48;;;6.15;;
23175;SDS011;19910;42.652;23.332;2023-05-20T09:01:00;7.43;;;5.70;;
23175;SDS011;19910;42.652;23.332;2023-05-20T09:03:27;9.07;;;5.82;;
23175;SDS011;19910;42.652;23.332;2023-05-20T09:06:01;9.73;;;6.00;;
23175;SDS011;19910;42.652;23.332;2023-05-20T09:08:29;9.65;;;6.03;;
23175;SDS011;19910;42.652;23.332;2023-05-20T09:10:58;7.93;;;5.72;;
23175;SDS011;19910;42.652;23.332;2023-05-20T09:13:25;7.25;;;5.93;;
23175;SDS011;19910;42.652;23.332;2023-05-20T09:15:52;8.93;;;5.75;;
23175;SDS011;19910;42.652;23.332;2023-05-20T09:18:19;7.28;;;5.80;;
23175;SDS011;19910;42.652;23.332;2023-05-20T09:20:47;7.70;;;5.75;;
23175;SDS011;19910;42.652;23.332;2023-05-20T09:23:17;7.65;;;5.88;;
23175;SDS011;19910;42.652;23.332;2023-05-20T09:25:47;9.32;;;6.13;;
23175;SDS011;19910;42.652;23.332;2023-05-20T09:28:17;7.22;;;5.95;;
23175;SDS011;19910;42.652;23.332;2023-05-20T09:30:47;10.63;;;6.30;;
23175;SDS011;19910;42.652;23.332;2023-05-20T09:33:14;7.43;;;5.78;;
23175;SDS011;19910;42.652;23.332;2023-05-20T09:35:42;7.82;;;6.10;;
23175;SDS011;19910;42.652;23.332;2023-05-20T09:38:09;10.15;;;6.30;;
23175;SDS011;19910;42.652;23.332;2023-05-20T09:40:36;8.80;;;5.85;;
23175;SDS011;19910;42.652;23.332;2023-05-20T09:43:04;7.20;;;6.13;;
23175;SDS011;19910;42.652;23.332;2023-05-20T09:45:33;8.02;;;6.40;;
23175;SDS011;19910;42.652;23.332;2023-05-20T09:48:00;12.10;;;5.93;;
23175;SDS011;19910;42.652;23.332;2023-05-20T09:50:27;7.50;;;5.45;;
23175;SDS011;19910;42.652;23.332;2023-05-20T09:52:55;7.95;;;6.05;;
23175;SDS011;19910;42.652;23.332;2023-05-20T09:55:26;7.00;;;6.00;;
23175;SDS011;19910;42.652;23.332;2023-05-20T09:57:54;8.50;;;5.90;;
23175;SDS011;19910;42.652;23.332;2023-05-20T10:00:21;7.78;;;6.00;;
23175;SDS011;19910;42.652;23.332;2023-05-20T10:02:50;8.18;;;6.68;;
23175;SDS011;19910;42.652;23.332;2023-05-20T10:05:18;9.30;;;6.70;;
23175;SDS011;19910;42.652;23.332;2023-05-20T10:08:07;9.98;;;6.50;;
23175;SDS011;19910;42.652;23.332;2023-05-20T10:10:48;6.63;;;5.45;;
23175;SDS011;19910;42.652;23.332;2023-05-20T10:16:16;9.75;;;5.88;;
23175;SDS011;19910;42.652;23.332;2023-05-20T10:18:57;7.72;;;5.68;;
23175;SDS011;19910;42.652;23.332;2023-05-20T10:21:33;8.30;;;5.00;;
23175;SDS011;19910;42.652;23.332;2023-05-20T10:24:06;7.70;;;5.45;;
23175;SDS011;19910;42.652;23.332;2023-05-20T10:26:34;7.50;;;5.18;;
23175;SDS011;19910;42.652;23.332;2023-05-20T10:29:01;6.18;;;5.13;;
23175;SDS011;19910;42.652;23.332;2023-05-20T10:31:43;8.00;;;4.57;;
23175;SDS011;19910;42.652;23.332;2023-05-20T10:34:14;6.38;;;4.10;;
23175;SDS011;19910;42.652;23.332;2023-05-20T10:36:44;8.75;;;4.65;;
23175;SDS011;19910;42.652;23.332;2023-05-20T10:39:14;6.55;;;4.38;;
23175;SDS011;19910;42.652;23.332;2023-05-20T10:41:42;4.50;;;3.53;;
23175;SDS011;19910;42.652;23.332;2023-05-20T10:44:08;6.57;;;4.55;;
23175;SDS011;19910;42.652;23.332;2023-05-20T10:46:35;7.95;;;3.95;;
23175;SDS011;19910;42.652;23.332;2023-05-20T10:49:03;7.63;;;4.25;;
23175;SDS011;19910;42.652;23.332;2023-05-20T10:51:34;7.35;;;3.67;;
23175;SDS011;19910;42.652;23.332;2023-05-20T10:54:01;6.57;;;3.95;;
23175;SDS011;19910;42.652;23.332;2023-05-20T10:56:28;5.68;;;4.05;;
23175;SDS011;19910;42.652;23.332;2023-05-20T10:58:55;5.65;;;3.58;;
23175;SDS011;19910;42.652;23.332;2023-05-20T11:01:23;5.93;;;4.20;;
23175;SDS011;19910;42.652;23.332;2023-05-20T11:03:51;6.05;;;4.43;;
23175;SDS011;19910;42.652;23.332;2023-05-20T11:06:24;5.80;;;4.30;;
23175;SDS011;19910;42.652;23.332;2023-05-20T11:08:53;5.50;;;4.43;;
23175;SDS011;19910;42.652;23.332;2023-05-20T11:11:21;9.68;;;4.57;;
23175;SDS011;19910;42.652;23.332;2023-05-20T11:13:49;6.72;;;4.43;;
23175;SDS011;19910;42.652;23.332;2023-05-20T11:16:17;6.53;;;4.60;;
23175;SDS011;19910;42.652;23.332;2023-05-20T11:18:46;6.47;;;4.53;;
23175;SDS011;19910;42.652;23.332;2023-05-20T11:21:14;7.65;;;4.82;;
23175;SDS011;19910;42.652;23.332;2023-05-20T11:23:41;12.07;;;4.97;;
23175;SDS011;19910;42.652;23.332;2023-05-20T11:26:09;6.45;;;4.85;;
23175;SDS011;19910;42.652;23.332;2023-05-20T11:28:36;6.25;;;4.72;;
23175;SDS011;19910;42.652;23.332;2023-05-20T11:31:03;7.10;;;5.00;;
23175;SDS011;19910;42.652;23.332;2023-05-20T11:33:31;7.50;;;5.00;;
23175;SDS011;19910;42.652;23.332;2023-05-20T11:35:58;8.68;;;4.38;;
23175;SDS011;19910;42.652;23.332;2023-05-20T11:38:24;6.65;;;4.90;;
23175;SDS011;19910;42.652;23.332;2023-05-20T11:40:53;7.68;;;4.53;;
23175;SDS011;19910;42.652;23.332;2023-05-20T11:43:22;7.13;;;4.80;;
23175;SDS011;19910;42.652;23.332;2023-05-20T11:45:51;9.73;;;5.20;;
23175;SDS011;19910;42.652;23.332;2023-05-20T11:48:19;5.65;;;5.00;;
23175;SDS011;19910;42.652;23.332;2023-05-20T11:50:47;7.22;;;4.82;;
23175;SDS011;19910;42.652;23.332;2023-05-20T11:53:14;8.63;;;5.22;;
23175;SDS011;19910;42.652;23.332;2023-05-20T11:55:45;5.53;;;4.65;;
23175;SDS011;19910;42.652;23.332;2023-05-20T11:58:17;7.82;;;4.43;;
23175;SDS011;19910;42.652;23.332;2023-05-20T12:00:46;6.07;;;5.00;;
23175;SDS011;19910;42.652;23.332;2023-05-20T12:03:13;11.82;;;4.97;;
23175;SDS011;19910;42.652;23.332;2023-05-20T12:05:40;6.93;;;4.85;;
23175;SDS011;19910;42.652;23.332;2023-05-20T12:08:07;8.60;;;4.90;;
23175;SDS011;19910;42.652;23.332;2023-05-20T12:10:34;8.57;;;5.35;;
23175;SDS011;19910;42.652;23.332;2023-05-20T12:13:02;5.88;;;4.68;;
23175;SDS011;19910;42.652;23.332;2023-05-20T12:15:32;7.97;;;5.50;;
23175;SDS011;19910;42.652;23.332;2023-05-20T12:18:01;7.07;;;5.25;;
23175;SDS011;19910;42.652;23.332;2023-05-20T12:20:28;9.07;;;4.93;;
23175;SDS011;19910;42.652;23.332;2023-05-20T12:22:58;6.82;;;4.60;;
23175;SDS011;19910;42.652;23.332;2023-05-20T12:25:25;5.82;;;4.70;;
23175;SDS011;19910;42.652;23.332;2023-05-20T12:27:52;11.68;;;4.55;;
23175;SDS011;19910;42.652;23.332;2023-05-20T12:30:19;7.25;;;3.90;;
23175;SDS011;19910;42.652;23.332;2023-05-20T12:32:47;9.00;;;3.60;;
23175;SDS011;19910;42.652;23.332;2023-05-20T12:35:16;6.57;;;3.97;;
23175;SDS011;19910;42.652;23.332;2023-05-20T12:37:44;14.70;;;3.67;;
23175;SDS011;19910;42.652;23.332;2023-05-20T12:40:11;4.97;;;2.90;;
23175;SDS011;19910;42.652;23.332;2023-05-20T12:42:38;7.07;;;2.70;;
23175;SDS011;19910;42.652;23.332;2023-05-20T12:45:06;6.03;;;2.80;;
23175;SDS011;19910;42.652;23.332;2023-05-20T12:47:34;4.38;;;2.60;;
23175;SDS011;19910;42.652;23.332;2023-05-20T12:50:01;3.42;;;2.45;;
23175;SDS011;19910;42.652;23.332;2023-05-20T12:52:30;5.93;;;2.60;;
23175;SDS011;19910;42.652;23.332;2023-05-20T12:54:57;6.50;;;2.95;;
23175;SDS011;19910;42.652;23.332;2023-05-20T12:57:23;7.57;;;3.03;;
23175;SDS011;19910;42.652;23.332;2023-05-20T12:59:51;6.53;;;3.90;;
23175;SDS011;19910;42.652;23.332;2023-05-20T13:02:17;8.23;;;3.65;;
23175;SDS011;19910;42.652;23.332;2023-05-20T13:04:45;7.78;;;3.05;;
23175;SDS011;19910;42.652;23.332;2023-05-20T13:07:11;4.45;;;3.10;;
23175;SDS011;19910;42.652;23.332;2023-05-20T13:09:40;3.80;;;3.00;;
23175;SDS011;19910;42.652;23.332;2023-05-20T13:12:06;7.03;;;3.88;;
23175;SDS011;19910;42.652;23.332;2023-05-20T13:14:34;8.13;;;3.08;;
23175;SDS011;19910;42.652;23.332;2023-05-20T13:17:00;3.40;;;2.83;;
23175;SDS011;19910;42.652;23.332;2023-05-20T13:19:27;6.18;;;3.55;;
23175;SDS011;19910;42.652;23.332;2023-05-20T13:21:54;6.72;;;3.50;;
23175;SDS011;19910;42.652;23.332;2023-05-20T13:24:21;6.60;;;3.38;;
23175;SDS011;19910;42.652;23.332;2023-05-20T13:26:49;5.38;;;3.92;;
23175;SDS011;19910;42.652;23.332;2023-05-20T13:29:16;6.07;;;3.90;;
23175;SDS011;19910;42.652;23.332;2023-05-20T13:31:43;4.53;;;4.05;;
23175;SDS011;19910;42.652;23.332;2023-05-20T13:34:09;8.15;;;3.72;;
23175;SDS011;19910;42.652;23.332;2023-05-20T13:36:36;6.10;;;3.63;;
23175;SDS011;19910;42.652;23.332;2023-05-20T13:39:03;5.47;;;4.03;;
23175;SDS011;19910;42.652;23.332;2023-05-20T13:41:30;6.03;;;4.03;;
23175;SDS011;19910;42.652;23.332;2023-05-20T13:43:58;6.65;;;4.03;;
23175;SDS011;19910;42.652;23.332;2023-05-20T13:46:25;5.45;;;3.53;;
23175;SDS011;19910;42.652;23.332;2023-05-20T13:48:52;6.05;;;4.45;;
23175;SDS011;19910;42.652;23.332;2023-05-20T13:51:19;10.45;;;4.68;;
23175;SDS011;19910;42.652;23.332;2023-05-20T13:53:46;6.78;;;4.07;;
23175;SDS011;19910;42.652;23.332;2023-05-20T13:56:13;4.20;;;3.65;;
23175;SDS011;19910;42.652;23.332;2023-05-20T13:58:40;5.85;;;4.53;;
23175;SDS011;19910;42.652;23.332;2023-05-20T14:01:08;8.93;;;4.72;;
23175;SDS011;19910;42.652;23.332;2023-05-20T14:03:36;6.20;;;4.55;;
23175;SDS011;19910;42.652;23.332;2023-05-20T14:06:04;6.97;;;4.78;;
23175;SDS011;19910;42.652;23.332;2023-05-20T14:08:31;9.23;;;5.28;;
23175;SDS011;19910;42.652;23.332;2023-05-20T14:10:58;5.88;;;4.65;;
23175;SDS011;19910;42.652;23.332;2023-05-20T14:13:25;6.35;;;4.03;;
23175;SDS011;19910;42.652;23.332;2023-05-20T14:15:51;8.90;;;5.03;;
23175;SDS011;19910;42.652;23.332;2023-05-20T14:18:21;6.80;;;4.43;;
23175;SDS011;19910;42.652;23.332;2023-05-20T14:20:47;7.00;;;4.28;;
23175;SDS011;19910;42.652;23.332;2023-05-20T14:23:14;7.13;;;3.95;;
23175;SDS011;19910;42.652;23.332;2023-05-20T14:25:41;6.05;;;4.13;;
23175;SDS011;19910;42.652;23.332;2023-05-20T14:28:08;10.18;;;4.82;;
23175;SDS011;19910;42.652;23.332;2023-05-20T14:30:34;5.95;;;4.43;;
23175;SDS011;19910;42.652;23.332;2023-05-20T14:33:01;5.63;;;4.35;;
23175;SDS011;19910;42.652;23.332;2023-05-20T14:35:29;6.32;;;4.78;;
23175;SDS011;19910;42.652;23.332;2023-05-20T14:37:56;7.28;;;5.20;;
23175;SDS011;19910;42.652;23.332;2023-05-20T14:40:23;7.07;;;4.75;;